Time;durP1;ratioP1;P1;durP2;ratioP2;P2;SDS_P1;SDS_P2;PMS_P1;PMS_P2;Temp;Humidity;BMP_temperature;BMP_pressure;BME280_temperature;BME280_humidity;BME280_pressure;Samples;Min_cycle;Max_cycle;Signal;HPM_P1;HPM_P2
2023/12/03 00:00:27;;;;;;;0.45;0.45;;;;;;;8.27;64.01;101861.91;5067982;28;20036;-62
2023/12/03 00:02:53;;;;;;;0.43;0.43;;;;;;;8.14;64.52;101867.00;5068579;28;20032;-62
2023/12/03 00:05:19;;;;;;;0.55;0.55;;;;;;;8.89;63.07;101859.56;5065880;28;20127;-62
2023/12/03 00:07:44;;;;;;;0.50;0.50;;;;;;;8.48;64.46;101866.47;5068436;28;20074;-61
2023/12/03 00:10:10;;;;;;;0.40;0.40;;;;;;;8.02;66.28;101860.44;5068287;28;20040;-62
2023/12/03 00:12:38;;;;;;;0.30;0.30;;;;;;;8.04;67.38;101865.63;5068525;28;20487;-62
2023/12/03 00:15:05;;;;;;;0.50;0.50;;;;;;;8.39;63.38;101860.38;5068155;28;20044;-62
2023/12/03 00:17:30;;;;;;;0.50;0.50;;;;;;;7.66;67.33;101862.16;5068555;28;20375;-61
2023/12/03 00:19:55;;;;;;;0.40;0.40;;;;;;;8.25;65.45;101855.06;5067657;28;20033;-62
2023/12/03 00:22:21;;;;;;;0.40;0.40;;;;;;;7.58;67.92;101862.22;5068285;28;20526;-61
2023/12/03 00:24:46;;;;;;;0.50;0.50;;;;;;;8.40;65.34;101855.88;5066440;28;20033;-62
2023/12/03 00:27:11;;;;;;;0.38;0.38;;;;;;;7.96;65.80;101854.00;5070409;28;20619;-62
2023/12/03 00:29:37;;;;;;;0.50;0.50;;;;;;;8.98;63.24;101853.09;5070114;28;20021;-61
2023/12/03 00:32:02;;;;;;;0.40;0.40;;;;;;;8.56;63.72;101861.03;5068080;28;20038;-62
2023/12/03 00:34:28;;;;;;;0.40;0.40;;;;;;;8.47;63.98;101856.81;5071977;28;20106;-62
2023/12/03 00:36:53;;;;;;;0.50;0.50;;;;;;;8.56;64.98;101861.03;5072286;28;20060;-62
2023/12/03 00:39:18;;;;;;;0.30;0.30;;;;;;;8.08;67.31;101865.06;5071944;28;20097;-63
2023/12/03 00:41:44;;;;;;;0.43;0.43;;;;;;;8.92;62.83;101867.25;5073030;28;20107;-62
2023/12/03 00:44:09;;;;;;;0.45;0.45;;;;;;;8.71;63.73;101867.19;5072214;28;20135;-61
2023/12/03 00:46:34;;;;;;;0.40;0.40;;;;;;;8.90;62.38;101871.97;5072067;28;20132;-62
2023/12/03 00:49:00;;;;;;;0.50;0.50;;;;;;;7.51;69.89;101875.47;5072072;28;20052;-61
2023/12/03 00:51:25;;;;;;;0.32;0.32;;;;;;;7.37;69.67;101881.59;5071826;28;20124;-61
2023/12/03 00:53:50;;;;;;;0.40;0.40;;;;;;;7.87;68.48;101895.22;5070915;28;20120;-62
2023/12/03 00:56:16;;;;;;;0.40;0.40;;;;;;;7.98;68.07;101885.91;5072393;28;20166;-63
2023/12/03 00:58:41;;;;;;;0.40;0.40;;;;;;;8.30;68.49;101877.56;5072446;28;20480;-61
2023/12/03 01:01:06;;;;;;;0.40;0.40;;;;;;;7.27;69.82;101875.69;5067104;28;20090;-62
2023/12/03 01:03:32;;;;;;;0.40;0.40;;;;;;;7.10;73.14;101891.00;5070260;28;20536;-64
2023/12/03 01:05:57;;;;;;;0.50;0.50;;;;;;;8.70;66.74;101884.28;5070158;28;20119;-62
2023/12/03 01:08:23;;;;;;;0.38;0.38;;;;;;;8.00;67.77;101884.72;5071519;28;20040;-61
2023/12/03 01:10:48;;;;;;;0.40;0.40;;;;;;;7.77;69.75;101891.97;5071549;28;20036;-62
2023/12/03 01:13:14;;;;;;;0.40;0.40;;;;;;;7.72;70.08;101883.69;5071635;28;20040;-62
2023/12/03 01:15:39;;;;;;;0.30;0.30;;;;;;;8.15;68.41;101881.22;5070339;28;20139;-61
2023/12/03 01:18:04;;;;;;;0.47;0.47;;;;;;;7.10;71.36;101899.00;5071593;28;20040;-62
2023/12/03 01:20:30;;;;;;;0.30;0.30;;;;;;;7.37;71.33;101894.16;5071700;28;20020;-60
2023/12/03 01:22:55;;;;;;;0.40;0.40;;;;;;;8.35;66.97;101885.06;5071145;28;20044;-61
2023/12/03 01:25:21;;;;;;;0.45;0.45;;;;;;;7.81;68.58;101897.78;5060054;28;20055;-61
2023/12/03 01:27:46;;;;;;;0.50;0.50;;;;;;;7.47;70.79;101908.94;5071548;28;20129;-62
2023/12/03 01:30:12;;;;;;;0.38;0.38;;;;;;;7.94;68.32;101901.50;5071227;28;20060;-63
2023/12/03 01:32:38;;;;;;;0.30;0.30;;;;;;;7.96;68.06;101904.00;5071513;28;20032;-61
2023/12/03 01:35:04;;;;;;;0.50;0.50;;;;;;;8.08;69.05;101899.06;5071132;28;20039;-62
2023/12/03 01:37:29;;;;;;;0.40;0.40;;;;;;;7.65;69.08;101909.47;5070866;28;20044;-62
2023/12/03 01:39:55;;;;;;;0.43;0.43;;;;;;;8.47;66.34;101900.47;5070305;28;20044;-62
2023/12/03 01:42:20;;;;;;;0.60;0.60;;;;;;;7.97;67.33;101922.56;5067212;28;20104;-61
2023/12/03 01:44:46;;;;;;;0.40;0.40;;;;;;;8.54;66.43;101919.31;5063703;28;20056;-62
2023/12/03 01:47:13;;;;;;;0.43;0.43;;;;;;;8.04;67.40;101927.19;5071041;28;20052;-62
2023/12/03 01:49:40;;;;;;;0.30;0.30;;;;;;;7.92;68.15;101924.13;5070941;28;20033;-63
2023/12/03 01:52:06;;;;;;;0.40;0.40;;;;;;;7.87;68.33;101932.69;5070967;28;20032;-62
2023/12/03 01:54:37;;;;;;;0.40;0.40;;;;;;;8.69;65.63;101933.53;5070904;28;20131;-63
2023/12/03 01:57:03;;;;;;;0.40;0.40;;;;;;;9.20;63.36;101927.13;5071588;28;20037;-63
2023/12/03 01:59:31;;;;;;;0.45;0.45;;;;;;;8.82;65.35;101931.84;5070772;28;20381;-61
2023/12/03 02:01:56;;;;;;;0.45;0.45;;;;;;;8.73;65.91;101937.50;5070571;28;20036;-62
2023/12/03 02:04:22;;;;;;;0.50;0.50;;;;;;;8.30;66.03;101947.19;5070560;28;20480;-62
2023/12/03 02:06:48;;;;;;;0.40;0.40;;;;;;;7.99;67.65;101944.63;5070973;28;20040;-62
2023/12/03 02:09:14;;;;;;;0.30;0.30;;;;;;;8.69;65.03;101945.06;5070644;28;20081;-62
2023/12/03 02:11:40;;;;;;;0.40;0.40;;;;;;;8.20;66.96;101945.75;5071095;28;20035;-62
2023/12/03 02:14:05;;;;;;;0.30;0.30;;;;;;;9.17;63.90;101937.44;5070692;28;20036;-62
2023/12/03 02:16:32;;;;;;;0.30;0.30;;;;;;;8.44;65.64;101941.03;5070601;28;20049;-61
2023/12/03 02:18:58;;;;;;;0.40;0.40;;;;;;;8.81;64.17;101943.59;5070642;28;20381;-62
2023/12/03 02:21:23;;;;;;;0.30;0.30;;;;;;;9.56;61.11;101945.88;5060083;28;20048;-62
2023/12/03 02:23:48;;;;;;;0.40;0.40;;;;;;;9.27;63.19;101946.00;5055108;28;20561;-62
2023/12/03 02:26:14;;;;;;;0.60;0.60;;;;;;;9.79;61.30;101948.38;5070649;28;20072;-62
2023/12/03 02:28:39;;;;;;;0.50;0.50;;;;;;;8.85;63.60;101946.72;5070430;28;20036;-61
2023/12/03 02:31:05;;;;;;;0.30;0.30;;;;;;;9.74;60.86;101944.44;5070068;28;20033;-61
2023/12/03 02:33:30;;;;;;;0.30;0.30;;;;;;;9.77;60.96;101935.13;5070250;28;20032;-61
2023/12/03 02:35:56;;;;;;;0.50;0.50;;;;;;;9.17;63.23;101943.63;5070380;28;20028;-61
2023/12/03 02:38:21;;;;;;;0.30;0.30;;;;;;;9.23;62.90;101942.03;5069590;28;20041;-62
2023/12/03 02:40:46;;;;;;;0.35;0.35;;;;;;;8.93;64.13;101943.94;5070174;28;20051;-62
2023/12/03 02:43:12;;;;;;;0.30;0.30;;;;;;;8.97;64.41;101942.56;5070263;28;20079;-62
2023/12/03 02:45:37;;;;;;;0.40;0.40;;;;;;;8.61;65.39;101938.97;5069711;28;20552;-62
2023/12/03 02:48:02;;;;;;;0.32;0.32;;;;;;;8.52;65.15;101943.63;5070410;28;20077;-62
2023/12/03 02:50:28;;;;;;;0.30;0.30;;;;;;;9.31;63.31;101942.75;5069480;28;20302;-62
2023/12/03 02:52:53;;;;;;;0.38;0.38;;;;;;;8.88;64.26;101939.13;5069763;28;20412;-62
2023/12/03 02:55:18;;;;;;;0.40;0.40;;;;;;;9.16;64.00;101936.59;5068239;28;20377;-64
2023/12/03 02:57:44;;;;;;;0.30;0.30;;;;;;;9.40;63.43;101938.91;5068436;28;20123;-61
2023/12/03 03:00:10;;;;;;;0.50;0.50;;;;;;;9.48;61.75;101932.59;5069681;28;20094;-61
2023/12/03 03:02:37;;;;;;;0.43;0.43;;;;;;;8.76;64.35;101934.47;5069904;28;20058;-60
2023/12/03 03:05:03;;;;;;;0.47;0.47;;;;;;;8.84;63.73;101934.34;5069596;28;20040;-62
2023/12/03 03:07:29;;;;;;;0.60;0.60;;;;;;;9.17;63.46;101940.09;5069515;28;20048;-61
2023/12/03 03:09:54;;;;;;;0.40;0.40;;;;;;;8.56;65.08;101936.03;5069302;28;20425;-61
2023/12/03 03:12:19;;;;;;;0.40;0.40;;;;;;;9.66;62.33;101938.34;5069517;28;20081;-62
2023/12/03 03:14:45;;;;;;;0.35;0.35;;;;;;;9.17;63.04;101940.09;5070066;28;20032;-62
2023/12/03 03:17:10;;;;;;;0.50;0.50;;;;;;;9.06;63.36;101945.97;5063377;28;20135;-62
2023/12/03 03:19:35;;;;;;;0.30;0.30;;;;;;;9.31;63.21;101948.13;5066580;28;20072;-63
2023/12/03 03:22:02;;;;;;;0.32;0.32;;;;;;;8.89;64.46;101939.97;5069185;28;20040;-61
2023/12/03 03:24:28;;;;;;;0.50;0.50;;;;;;;9.70;61.86;101934.25;5069327;28;20063;-62
2023/12/03 03:26:53;;;;;;;0.40;0.40;;;;;;;9.99;60.24;101931.41;5069573;28;20492;-62
2023/12/03 03:29:18;;;;;;;0.30;0.30;;;;;;;9.37;62.06;101935.78;5069055;28;20043;-61
2023/12/03 03:31:44;;;;;;;0.40;0.40;;;;;;;10.13;60.35;101933.22;5069039;28;20115;-62
2023/12/03 03:34:10;;;;;;;0.40;0.40;;;;;;;10.88;56.96;101932.41;5068981;28;20523;-62
2023/12/03 03:36:35;;;;;;;0.50;0.50;;;;;;;10.46;57.35;101941.47;5060832;28;20040;-62
2023/12/03 03:39:03;;;;;;;0.43;0.43;;;;;;;10.21;60.17;101946.50;5069087;28;20093;-62
2023/12/03 03:41:28;;;;;;;0.40;0.40;;;;;;;10.57;58.18;101949.81;5069001;28;20036;-62
2023/12/03 03:43:53;;;;;;;0.30;0.30;;;;;;;10.96;57.33;101961.81;5069211;28;20119;-60
2023/12/03 03:46:19;;;;;;;0.50;0.50;;;;;;;10.76;57.02;101961.72;5068772;28;20089;-61
2023/12/03 03:48:44;;;;;;;0.40;0.40;;;;;;;10.25;58.89;101954.97;5069028;28;20052;-61
2023/12/03 03:51:09;;;;;;;0.47;0.47;;;;;;;8.67;64.42;101968.53;5068705;28;20032;-62
2023/12/03 03:53:35;;;;;;;0.47;0.47;;;;;;;9.97;60.83;101968.38;5069269;28;20028;-62
2023/12/03 03:56:10;;;;;;;0.60;0.60;;;;;;;10.41;58.87;101968.97;5068663;28;20374;-62
2023/12/03 03:58:36;;;;;;;0.38;0.38;;;;;;;10.46;58.61;101977.25;5068967;28;20210;-62
2023/12/03 04:01:06;;;;;;;0.30;0.30;;;;;;;9.45;61.86;101973.22;5067836;28;20039;-62
2023/12/03 04:03:32;;;;;;;0.30;0.30;;;;;;;9.96;59.65;101977.47;5068715;28;20029;-61
2023/12/03 04:06:03;;;;;;;0.30;0.30;;;;;;;9.77;59.77;101978.09;5069054;28;20033;-62
2023/12/03 04:08:29;;;;;;;0.40;0.40;;;;;;;10.06;59.58;101971.75;5069121;28;20064;-62
2023/12/03 04:10:54;;;;;;;0.30;0.30;;;;;;;9.90;60.23;101974.69;5068496;28;20056;-61
2023/12/03 04:13:19;;;;;;;0.35;0.35;;;;;;;9.50;61.40;101970.78;5068426;28;20139;-61
2023/12/03 04:15:45;;;;;;;0.43;0.43;;;;;;;10.43;59.19;101972.28;5052523;28;20160;-61
2023/12/03 04:18:10;;;;;;;0.38;0.38;;;;;;;10.34;58.55;101970.75;5068898;28;20384;-62
2023/12/03 04:20:35;;;;;;;0.40;0.40;;;;;;;9.23;62.25;101983.09;5067571;28;20040;-61
2023/12/03 04:23:01;;;;;;;0.47;0.47;;;;;;;9.52;61.06;101972.28;5068530;28;20050;-61
2023/12/03 04:25:26;;;;;;;0.30;0.30;;;;;;;9.91;59.70;101981.72;5067078;28;20512;-62
2023/12/03 04:27:52;;;;;;;0.40;0.40;;;;;;;10.27;59.01;101986.00;5068387;28;20398;-61
2023/12/03 04:30:17;;;;;;;0.30;0.30;;;;;;;9.74;60.75;101982.00;5068548;28;20063;-61
2023/12/03 04:32:42;;;;;;;0.43;0.43;;;;;;;9.46;61.85;101985.63;5063113;28;20437;-63
2023/12/03 04:35:08;;;;;;;0.50;0.50;;;;;;;10.21;59.43;101991.31;5068443;28;20404;-61
2023/12/03 04:37:33;;;;;;;0.30;0.30;;;;;;;9.27;63.65;101991.59;5068397;28;20082;-62
2023/12/03 04:39:59;;;;;;;0.32;0.32;;;;;;;9.51;61.78;101997.44;5068279;28;20036;-60
2023/12/03 04:42:24;;;;;;;0.40;0.40;;;;;;;9.00;63.72;101993.13;5083705;28;20458;-62
2023/12/03 04:44:49;;;;;;;0.40;0.40;;;;;;;9.57;61.78;101990.50;5069282;28;20035;-61
2023/12/03 04:47:15;;;;;;;0.38;0.38;;;;;;;9.67;61.48;101989.16;5068577;28;20036;-61
2023/12/03 04:49:40;;;;;;;0.40;0.40;;;;;;;9.53;61.45;101990.03;5068248;28;20178;-61
2023/12/03 04:52:05;;;;;;;0.40;0.40;;;;;;;10.18;59.37;101997.91;5068314;28;20143;-61
2023/12/03 04:54:31;;;;;;;0.30;0.30;;;;;;;9.77;61.73;101996.06;5068473;28;20106;-63
2023/12/03 04:56:56;;;;;;;0.50;0.50;;;;;;;10.32;58.35;102005.03;5068800;28;20500;-62
2023/12/03 04:59:21;;;;;;;0.40;0.40;;;;;;;10.90;56.96;102001.09;5066940;28;20044;-62
2023/12/03 05:01:47;;;;;;;0.40;0.40;;;;;;;11.14;56.13;102000.59;5060174;28;20139;-63
2023/12/03 05:04:12;;;;;;;0.40;0.40;;;;;;;10.89;55.73;102012.06;5060495;28;20037;-62
2023/12/03 05:06:37;;;;;;;0.40;0.40;;;;;;;10.61;57.38;102015.59;5053679;28;20124;-62
2023/12/03 05:09:03;;;;;;;0.30;0.30;;;;;;;11.10;55.77;102017.34;5065921;28;20457;-62
2023/12/03 05:11:28;;;;;;;0.30;0.30;;;;;;;11.00;56.59;102015.00;5054253;28;20404;-62
2023/12/03 05:13:54;;;;;;;0.30;0.30;;;;;;;10.87;57.11;102024.88;5062421;28;20123;-62
2023/12/03 05:16:19;;;;;;;0.30;0.30;;;;;;;11.10;55.83;102018.16;5067788;28;20724;-62
2023/12/03 05:18:44;;;;;;;0.30;0.30;;;;;;;11.33;55.19;102024.06;5070999;28;20357;-62
2023/12/03 05:21:10;;;;;;;0.30;0.30;;;;;;;11.37;55.22;102014.56;5071392;28;20074;-62
2023/12/03 05:23:35;;;;;;;0.40;0.40;;;;;;;11.38;54.93;102018.06;5070423;28;20094;-61
2023/12/03 05:26:01;;;;;;;0.40;0.40;;;;;;;11.37;55.06;102009.16;5071589;28;20505;-62
2023/12/03 05:28:26;;;;;;;0.43;0.43;;;;;;;11.07;55.88;102005.09;5071366;28;20036;-63
2023/12/03 05:30:52;;;;;;;0.30;0.30;;;;;;;10.60;57.74;102005.03;5071315;28;20043;-62
2023/12/03 05:33:18;;;;;;;0.30;0.30;;;;;;;11.03;56.37;102009.22;5071164;28;20040;-62
2023/12/03 05:35:43;;;;;;;0.40;0.40;;;;;;;11.27;55.14;102013.25;5071736;28;20016;-62
2023/12/03 05:38:08;;;;;;;0.45;0.45;;;;;;;11.39;55.03;102022.41;5069141;28;20575;-61
2023/12/03 05:40:34;;;;;;;0.32;0.32;;;;;;;11.54;54.66;102020.38;5071296;28;20032;-64
2023/12/03 05:43:00;;;;;;;0.22;0.22;;;;;;;11.46;54.80;102017.88;5069360;28;20519;-63
2023/12/03 05:45:25;;;;;;;0.50;0.50;;;;;;;11.17;55.35;102015.50;5070873;28;20036;-62
2023/12/03 05:47:51;;;;;;;0.35;0.35;;;;;;;9.93;58.72;102018.09;5071407;28;20455;-62
2023/12/03 05:50:16;;;;;;;0.50;0.50;;;;;;;10.26;59.57;102021.13;5069689;28;20518;-62
2023/12/03 05:52:41;;;;;;;0.40;0.40;;;;;;;10.63;57.50;102016.22;5070605;28;20050;-62
2023/12/03 05:55:07;;;;;;;0.40;0.40;;;;;;;10.87;56.57;102020.31;5070689;28;20509;-62
2023/12/03 05:57:32;;;;;;;0.30;0.30;;;;;;;10.95;56.47;102024.69;5071162;28;20028;-62
2023/12/03 05:59:58;;;;;;;0.30;0.30;;;;;;;10.59;57.29;102027.59;5071241;28;20112;-64
2023/12/03 06:02:23;;;;;;;0.30;0.30;;;;;;;10.76;57.33;102028.09;5070410;28;20055;-62
2023/12/03 06:04:48;;;;;;;0.40;0.40;;;;;;;10.76;57.12;102028.09;5070619;28;20037;-61
2023/12/03 06:07:13;;;;;;;0.35;0.35;;;;;;;10.54;58.33;102025.47;5053982;28;20087;-61
2023/12/03 06:09:39;;;;;;;0.30;0.30;;;;;;;10.62;57.25;102027.19;5070335;28;20163;-60
2023/12/03 06:12:05;;;;;;;0.50;0.50;;;;;;;10.14;59.72;102028.03;5071162;28;20051;-62
2023/12/03 06:14:31;;;;;;;0.38;0.38;;;;;;;10.90;56.75;102029.84;5071763;28;20460;-61
2023/12/03 06:16:57;;;;;;;0.40;0.40;;;;;;;10.90;56.73;102027.16;5070724;28;20202;-62
2023/12/03 06:19:22;;;;;;;0.30;0.30;;;;;;;10.16;58.85;102031.38;5070673;28;20067;-61
2023/12/03 06:21:47;;;;;;;0.45;0.45;;;;;;;10.64;57.34;102030.50;5070521;28;20037;-62
2023/12/03 06:24:13;;;;;;;0.30;0.30;;;;;;;10.32;57.89;102031.06;5070168;28;20052;-62
2023/12/03 06:26:39;;;;;;;0.30;0.30;;;;;;;10.08;59.60;102037.69;5069423;28;20472;-62
2023/12/03 06:29:04;;;;;;;0.30;0.30;;;;;;;10.71;58.03;102035.94;5070267;28;20032;-61
2023/12/03 06:31:30;;;;;;;0.30;0.30;;;;;;;10.61;58.06;102034.41;5070156;28;20492;-62
2023/12/03 06:33:55;;;;;;;0.40;0.40;;;;;;;10.63;57.29;102039.59;5070086;28;20140;-62
2023/12/03 06:36:20;;;;;;;0.30;0.30;;;;;;;11.15;56.03;102031.00;5070182;28;20040;-63
2023/12/03 06:38:46;;;;;;;0.50;0.50;;;;;;;10.84;56.01;102044.91;5069853;28;20476;-61
2023/12/03 06:41:11;;;;;;;0.35;0.35;;;;;;;9.34;59.73;102041.59;5069939;28;20044;-62
2023/12/03 06:43:36;;;;;;;0.35;0.35;;;;;;;9.33;61.95;102041.81;5069960;28;20398;-63
2023/12/03 06:46:02;;;;;;;0.30;0.30;;;;;;;9.35;61.75;102034.41;5070215;28;20492;-61
2023/12/03 06:48:27;;;;;;;0.40;0.40;;;;;;;10.21;59.08;102037.81;5069894;28;20032;-62
2023/12/03 06:50:53;;;;;;;0.30;0.30;;;;;;;10.63;57.04;102038.78;5070417;28;20021;-61
2023/12/03 06:53:18;;;;;;;0.38;0.38;;;;;;;10.33;57.88;102038.13;5069588;28;20075;-62
2023/12/03 06:55:44;;;;;;;0.30;0.30;;;;;;;10.44;57.68;102046.47;5069951;28;20064;-61
2023/12/03 06:58:09;;;;;;;0.40;0.40;;;;;;;11.01;55.10;102043.56;5069947;28;20079;-63
2023/12/03 07:00:35;;;;;;;0.60;0.60;;;;;;;11.06;54.43;102045.66;5069811;28;20039;-62
2023/12/03 07:03:00;;;;;;;0.32;0.32;;;;;;;10.90;54.51;102041.44;5069794;28;20028;-61
2023/12/03 07:05:25;;;;;;;0.40;0.40;;;;;;;10.97;53.74;102053.03;5053097;28;20043;-62
2023/12/03 07:07:51;;;;;;;0.30;0.30;;;;;;;10.59;54.61;102051.78;5069835;28;20029;-62
2023/12/03 07:10:17;;;;;;;0.30;0.30;;;;;;;10.89;53.64;102053.19;5069917;28;20131;-61
2023/12/03 07:12:42;;;;;;;0.38;0.38;;;;;;;10.87;53.50;102060.63;5067520;28;20035;-62
2023/12/03 07:15:08;;;;;;;0.40;0.40;;;;;;;10.61;53.71;102063.16;5069039;28;20024;-61
2023/12/03 07:17:34;;;;;;;0.50;0.50;;;;;;;10.60;53.89;102062.31;5068388;28;20111;-63
2023/12/03 07:19:59;;;;;;;0.38;0.38;;;;;;;10.46;54.79;102063.25;5069253;28;20032;-62
2023/12/03 07:22:25;;;;;;;0.40;0.40;;;;;;;10.60;53.84;102064.19;5069379;28;20047;-61
2023/12/03 07:24:50;;;;;;;0.40;0.40;;;;;;;10.44;54.21;102067.97;5069179;28;20040;-62
2023/12/03 07:27:18;;;;;;;0.35;0.35;;;;;;;10.54;53.88;102068.47;5069262;28;20028;-62
2023/12/03 07:29:43;;;;;;;0.40;0.40;;;;;;;10.42;54.08;102074.56;5053289;28;20024;-62
2023/12/03 07:32:08;;;;;;;0.30;0.30;;;;;;;10.20;54.84;102079.13;5068526;28;20038;-62
2023/12/03 07:34:34;;;;;;;0.40;0.40;;;;;;;10.46;53.80;102084.75;5068709;28;20214;-61
2023/12/03 07:36:59;;;;;;;0.40;0.40;;;;;;;10.42;54.02;102079.94;5067936;28;20123;-61
2023/12/03 07:39:25;;;;;;;0.30;0.30;;;;;;;10.26;54.42;102083.72;5068366;28;20044;-61
2023/12/03 07:41:51;;;;;;;0.40;0.40;;;;;;;10.44;54.25;102077.88;5069298;28;20017;-61
2023/12/03 07:44:17;;;;;;;0.30;0.30;;;;;;;10.50;54.13;102080.66;5064372;28;20033;-62
2023/12/03 07:46:42;;;;;;;0.30;0.30;;;;;;;10.32;54.43;102082.13;5068704;28;20029;-61
2023/12/03 07:49:08;;;;;;;0.38;0.38;;;;;;;10.32;55.00;102082.97;5068770;28;20087;-61
2023/12/03 07:51:34;;;;;;;0.40;0.40;;;;;;;10.29;55.47;102085.22;5068181;28;20032;-61
2023/12/03 07:53:59;;;;;;;0.30;0.30;;;;;;;9.55;56.92;102081.91;5068786;28;20095;-61
2023/12/03 07:56:38;;;;;;;0.40;0.40;;;;;;;9.85;56.92;102087.22;5068290;28;20037;-62
2023/12/03 07:59:03;;;;;;;0.45;0.45;;;;;;;9.69;57.28;102090.94;5065066;28;20044;-61
2023/12/03 08:01:29;;;;;;;0.30;0.30;;;;;;;9.18;60.08;102091.97;5066416;28;20040;-61
2023/12/03 08:03:54;;;;;;;0.40;0.40;;;;;;;9.94;56.36;102096.81;5068261;28;20033;-61
2023/12/03 08:06:20;;;;;;;0.30;0.30;;;;;;;9.56;57.26;102090.78;5068222;28;20031;-61
2023/12/03 08:08:45;;;;;;;0.30;0.30;;;;;;;9.82;56.13;102095.63;5068606;28;20025;-62
2023/12/03 08:11:11;;;;;;;0.45;0.45;;;;;;;9.60;57.10;102102.81;5068403;28;20435;-61
2023/12/03 08:13:37;;;;;;;0.40;0.40;;;;;;;9.37;57.65;102099.44;5068416;28;20043;-62
2023/12/03 08:16:04;;;;;;;0.40;0.40;;;;;;;9.78;56.43;102105.94;5068236;28;20420;-61
2023/12/03 08:18:30;;;;;;;0.50;0.50;;;;;;;9.59;57.10;102098.47;5068179;28;20496;-61
2023/12/03 08:20:55;;;;;;;0.32;0.32;;;;;;;9.42;57.18;102103.22;5067933;28;20028;-62
2023/12/03 08:23:21;;;;;;;0.40;0.40;;;;;;;8.81;57.82;102117.81;5067323;28;20615;-61
2023/12/03 08:25:46;;;;;;;0.38;0.38;;;;;;;9.42;57.75;102108.56;5067442;28;20075;-63
2023/12/03 08:28:12;;;;;;;0.40;0.40;;;;;;;9.43;56.55;102114.78;5067801;28;20064;-63
2023/12/03 08:30:38;;;;;;;0.50;0.50;;;;;;;8.78;58.25;102120.03;5067605;28;20039;-62
2023/12/03 08:33:03;;;;;;;0.45;0.45;;;;;;;8.95;58.25;102115.31;5067818;28;20028;-62
2023/12/03 08:35:31;;;;;;;0.60;0.60;;;;;;;8.20;60.93;102120.63;5067934;28;20028;-61
2023/12/03 08:37:57;;;;;;;0.40;0.40;;;;;;;8.85;58.90;102123.63;5067391;28;20051;-61
2023/12/03 08:40:22;;;;;;;0.30;0.30;;;;;;;8.93;58.29;102122.72;5067519;28;20045;-63
2023/12/03 08:42:47;;;;;;;0.32;0.32;;;;;;;8.22;59.63;102118.59;5068625;28;20037;-62
2023/12/03 08:45:13;;;;;;;0.40;0.40;;;;;;;7.56;63.18;102121.03;5067866;28;20039;-63
2023/12/03 08:47:38;;;;;;;0.57;0.57;;;;;;;9.07;59.16;102117.38;5069672;28;20039;-62
2023/12/03 08:50:05;;;;;;;0.52;0.52;;;;;;;9.32;57.26;102116.06;5071331;28;20554;-62
2023/12/03 08:52:31;;;;;;;0.40;0.40;;;;;;;9.44;57.35;102124.47;5071021;28;20040;-61
2023/12/03 08:54:56;;;;;;;0.60;0.60;;;;;;;9.94;55.38;102116.44;5069879;28;20394;-62
2023/12/03 08:57:21;;;;;;;0.35;0.35;;;;;;;8.87;58.41;102121.59;5071310;28;20087;-63
2023/12/03 08:59:47;;;;;;;0.40;0.40;;;;;;;9.52;57.18;102119.00;5069020;28;20060;-62
2023/12/03 09:02:12;;;;;;;0.60;0.60;;;;;;;10.05;55.76;102126.69;5070512;28;20128;-61
2023/12/03 09:04:38;;;;;;;0.40;0.40;;;;;;;9.44;55.63;102122.63;5071067;28;20028;-62
2023/12/03 09:07:04;;;;;;;0.40;0.40;;;;;;;8.46;58.45;102128.34;5071607;28;20047;-63
2023/12/03 09:09:29;;;;;;;0.40;0.40;;;;;;;9.40;57.53;102125.88;5071743;28;20033;-62
2023/12/03 09:11:54;;;;;;;0.30;0.30;;;;;;;9.69;56.92;102115.94;5071953;28;20484;-64
2023/12/03 09:14:20;;;;;;;0.40;0.40;;;;;;;9.77;56.56;102130.28;5071426;28;20423;-62
2023/12/03 09:16:45;;;;;;;0.45;0.45;;;;;;;9.15;57.88;102138.75;5071508;28;20036;-64
2023/12/03 09:19:10;;;;;;;0.40;0.40;;;;;;;9.13;58.36;102138.09;5071343;28;20420;-63
2023/12/03 09:21:36;;;;;;;0.52;0.52;;;;;;;9.76;57.01;102132.13;5071358;28;20029;-63
2023/12/03 09:24:01;;;;;;;0.38;0.38;;;;;;;10.26;55.30;102125.91;5071594;28;20024;-63
2023/12/03 09:26:26;;;;;;;0.32;0.32;;;;;;;9.81;56.39;102127.00;5071358;28;20127;-62
2023/12/03 09:28:52;;;;;;;0.47;0.47;;;;;;;9.57;56.77;102119.31;5069372;28;20028;-62
2023/12/03 09:31:17;;;;;;;0.50;0.50;;;;;;;8.93;59.18;102131.59;5068516;28;20041;-62
2023/12/03 09:33:44;;;;;;;0.50;0.50;;;;;;;9.84;56.75;102120.44;5071033;28;20032;-62
2023/12/03 09:36:10;;;;;;;0.60;0.60;;;;;;;9.68;56.86;102121.50;5071355;28;20457;-63
2023/12/03 09:38:35;;;;;;;0.60;0.60;;;;;;;9.58;58.54;102121.78;5071201;28;20056;-62
2023/12/03 09:41:07;;;;;;;0.38;0.38;;;;;;;9.53;57.56;102128.75;5068448;28;20037;-62
2023/12/03 09:43:36;;;;;;;0.50;0.50;;;;;;;10.24;55.39;102125.25;5071125;28;20032;-64
2023/12/03 09:46:05;;;;;;;0.40;0.40;;;;;;;9.84;56.32;102121.28;5068524;28;20090;-62
2023/12/03 09:48:32;;;;;;;0.32;0.32;;;;;;;10.22;55.45;102130.00;5071011;28;20507;-61
2023/12/03 09:50:59;;;;;;;0.38;0.38;;;;;;;8.97;57.70;102135.56;5071276;28;20024;-62
2023/12/03 09:53:29;;;;;;;0.40;0.40;;;;;;;9.12;57.75;102133.72;5070178;28;20044;-62
2023/12/03 09:55:54;;;;;;;0.40;0.40;;;;;;;9.45;56.89;102129.66;5070356;28;20357;-62
2023/12/03 09:58:20;;;;;;;0.30;0.30;;;;;;;9.95;55.39;102119.94;5067586;28;20124;-62
2023/12/03 10:00:47;;;;;;;0.30;0.30;;;;;;;9.85;55.61;102120.25;5069655;28;20572;-62
2023/12/03 10:03:13;;;;;;;0.38;0.38;;;;;;;10.13;55.14;102136.50;5068108;28;20031;-61
2023/12/03 10:05:38;;;;;;;0.30;0.30;;;;;;;10.69;53.69;102113.25;5070276;28;20028;-62
2023/12/03 10:08:04;;;;;;;0.40;0.40;;;;;;;9.88;55.43;102124.41;5070721;28;20044;-62
2023/12/03 10:10:31;;;;;;;0.30;0.30;;;;;;;9.45;56.48;102124.28;5070659;28;20040;-62
2023/12/03 10:12:58;;;;;;;0.40;0.40;;;;;;;10.37;54.47;102120.00;5068557;28;20040;-62
2023/12/03 10:15:24;;;;;;;0.30;0.30;;;;;;;10.11;54.51;102123.25;5070237;28;20036;-62
2023/12/03 10:17:50;;;;;;;0.43;0.43;;;;;;;9.57;55.56;102125.47;5071001;28;20051;-61
2023/12/03 10:20:21;;;;;;;0.30;0.30;;;;;;;10.71;53.64;102120.09;5070731;28;20044;-61
2023/12/03 10:22:50;;;;;;;;;;;;;;;10.88;52.28;102115.25;5071067;28;20064;-62
2023/12/03 10:25:25;;;;;;;0.40;0.40;;;;;;;10.07;54.22;102121.09;5070336;28;20318;-63
2023/12/03 10:27:53;;;;;;;0.47;0.47;;;;;;;9.76;54.98;102118.69;5070644;28;20407;-63
2023/12/03 10:30:18;;;;;;;0.50;0.50;;;;;;;10.15;54.32;102118.34;5069320;28;20028;-62
2023/12/03 10:32:45;;;;;;;0.70;0.70;;;;;;;10.29;53.91;102112.91;5070801;28;20133;-62
2023/12/03 10:35:11;;;;;;;0.43;0.43;;;;;;;10.69;52.59;102107.88;5070415;28;20040;-62
2023/12/03 10:37:37;;;;;;;0.40;0.40;;;;;;;9.82;54.67;102103.69;5070339;28;20082;-61
2023/12/03 10:40:03;;;;;;;0.50;0.50;;;;;;;10.49;53.09;102105.88;5070075;28;20082;-62
2023/12/03 10:42:29;;;;;;;0.30;0.30;;;;;;;9.50;54.92;102108.47;5070860;28;20041;-62
2023/12/03 10:44:54;;;;;;;0.32;0.32;;;;;;;9.71;53.97;102111.22;5070531;28;20032;-62
2023/12/03 10:47:21;;;;;;;0.30;0.30;;;;;;;9.15;54.76;102106.56;5067561;28;20047;-62
2023/12/03 10:49:49;;;;;;;0.40;0.40;;;;;;;10.12;53.20;102095.38;5069046;28;20041;-62
2023/12/03 10:52:14;;;;;;;0.30;0.30;;;;;;;10.49;52.33;102099.66;5069020;28;20044;-62
2023/12/03 10:54:40;;;;;;;0.40;0.40;;;;;;;10.39;51.29;102091.09;5068460;28;20044;-63
2023/12/03 10:57:06;;;;;;;0.47;0.47;;;;;;;10.93;50.43;102096.69;5069972;28;20365;-62
2023/12/03 10:59:34;;;;;;;0.40;0.40;;;;;;;10.66;51.52;102092.13;5070112;28;20025;-63
2023/12/03 11:02:02;;;;;;;0.52;0.52;;;;;;;10.69;50.33;102095.28;5069751;28;20036;-62
2023/12/03 11:04:55;;;;;;;0.30;0.30;;;;;;;10.79;50.99;102095.75;5069863;28;20037;-63
2023/12/03 11:07:21;;;;;;;0.40;0.40;;;;;;;10.63;51.40;102095.22;5067376;28;20045;-62
2023/12/03 11:09:49;;;;;;;0.40;0.40;;;;;;;10.78;50.10;102094.09;5069692;28;20127;-63
2023/12/03 11:12:16;;;;;;;0.40;0.40;;;;;;;10.34;51.01;102082.75;5069829;28;20516;-64
2023/12/03 11:14:43;;;;;;;0.40;0.40;;;;;;;10.13;51.24;102088.97;5070161;28;20455;-63
2023/12/03 11:17:22;;;;;;;0.30;0.30;;;;;;;10.90;49.33;102083.63;5069648;28;20059;-61
2023/12/03 11:19:51;;;;;;;0.40;0.40;;;;;;;10.87;49.30;102081.34;5068110;28;20045;-62
2023/12/03 11:22:35;;;;;;;0.30;0.30;;;;;;;10.60;50.23;102080.31;5069531;28;20036;-63